createdAt,value
2022-11-16T00:00:15.469Z,11.40
2022-11-16T00:02:16.959Z,11.36
2022-11-16T00:04:18.447Z,11.31
2022-11-16T00:06:21.081Z,11.30
2022-11-16T00:08:22.688Z,11.29
2022-11-16T00:10:24.193Z,11.25
2022-11-16T00:12:25.572Z,11.20
2022-11-16T00:14:29.813Z,11.16
2022-11-16T00:16:31.230Z,11.17
2022-11-16T00:18:33.116Z,11.18
2022-11-16T00:20:34.640Z,11.12
2022-11-16T00:22:36.013Z,11.11
2022-11-16T00:24:37.383Z,11.13
2022-11-16T00:26:38.751Z,11.13
2022-11-16T00:28:40.255Z,11.15
2022-11-16T00:30:41.668Z,11.09
2022-11-16T00:32:42.998Z,10.98
2022-11-16T00:34:44.393Z,10.97
2022-11-16T00:36:46.617Z,10.94
2022-11-16T00:38:51.146Z,10.95
2022-11-16T00:40:52.563Z,10.93
2022-11-16T00:42:53.900Z,10.93
2022-11-16T00:44:55.376Z,10.90
2022-11-16T00:46:56.745Z,10.90
2022-11-16T00:48:58.155Z,10.92
2022-11-16T00:50:59.508Z,10.93
2022-11-16T00:53:00.940Z,10.93
2022-11-16T00:55:02.282Z,10.96
2022-11-16T00:57:03.700Z,10.90
2022-11-16T00:59:05.278Z,10.86
2022-11-16T01:01:08.863Z,10.90
2022-11-16T01:03:10.950Z,10.92
2022-11-16T01:05:12.604Z,10.95
2022-11-16T01:07:14.093Z,10.87
2022-11-16T01:09:15.510Z,10.90
2022-11-16T01:11:36.271Z,10.85
2022-11-16T01:13:37.617Z,10.86
2022-11-16T01:15:39.009Z,10.82
2022-11-16T01:17:40.924Z,10.82
2022-11-16T01:19:42.405Z,10.79
2022-11-16T01:21:43.739Z,10.77
2022-11-16T01:23:45.220Z,10.77
2022-11-16T01:25:46.539Z,10.77
2022-11-16T01:27:48.003Z,10.76
2022-11-16T01:29:49.370Z,10.75
2022-11-16T01:31:50.778Z,10.75
2022-11-16T01:33:52.159Z,10.71
2022-11-16T01:35:53.521Z,10.72
2022-11-16T01:37:54.884Z,10.72
2022-11-16T01:39:56.412Z,10.71
2022-11-16T01:41:57.820Z,10.69
2022-11-16T01:44:15.570Z,10.64
2022-11-16T01:46:16.987Z,10.59
2022-11-16T01:48:25.861Z,10.61
2022-11-16T01:50:27.666Z,10.60
2022-11-16T01:52:32.649Z,10.58
2022-11-16T01:54:40.565Z,10.53
2022-11-16T01:56:45.248Z,10.54
2022-11-16T01:58:47.004Z,10.53
2022-11-16T02:00:49.159Z,10.53
2022-11-16T02:02:51.005Z,10.52
2022-11-16T02:04:55.239Z,10.52
2022-11-16T02:07:05.566Z,10.48
2022-11-16T02:09:38.725Z,10.50
2022-11-16T02:12:11.086Z,10.47
2022-11-16T02:14:21.383Z,10.42
2022-11-16T02:16:49.464Z,10.43
2022-11-16T02:19:32.245Z,10.42
2022-11-16T02:21:42.492Z,10.42
2022-11-16T02:24:33.032Z,10.38
2022-11-16T02:27:19.290Z,10.36
2022-11-16T02:29:37.910Z,10.35
2022-11-16T02:31:46.956Z,10.36
2022-11-16T02:33:50.097Z,10.33
2022-11-16T02:35:56.369Z,10.34
2022-11-16T02:38:02.605Z,10.31
2022-11-16T02:40:07.824Z,10.34
2022-11-16T02:42:17.059Z,10.34
2022-11-16T02:44:23.075Z,10.34
2022-11-16T02:46:31.122Z,10.37
2022-11-16T02:48:43.419Z,10.40
2022-11-16T02:50:46.664Z,10.39
2022-11-16T02:52:48.004Z,10.44
2022-11-16T02:54:49.423Z,10.47
2022-11-16T02:56:57.499Z,10.48
2022-11-16T02:58:59.775Z,10.48
2022-11-16T03:01:06.211Z,10.51
2022-11-16T03:03:30.904Z,10.54
2022-11-16T03:05:45.484Z,10.46
2022-11-16T03:08:15.004Z,10.48
2022-11-16T03:10:40.150Z,10.52
2022-11-16T03:12:42.146Z,10.53
2022-11-16T03:14:58.585Z,10.51
2022-11-16T03:17:01.944Z,10.50
2022-11-16T03:19:07.898Z,10.52
2022-11-16T03:21:24.184Z,10.54
2022-11-16T03:23:25.531Z,10.52
2022-11-16T03:25:32.956Z,10.56
2022-11-16T03:27:44.828Z,10.57
2022-11-16T03:30:04.726Z,10.54
2022-11-16T03:32:16.452Z,10.53
2022-11-16T03:34:22.455Z,10.52
2022-11-16T03:36:33.494Z,10.44
2022-11-16T03:38:37.700Z,10.47
2022-11-16T03:40:40.528Z,10.46
2022-11-16T03:42:43.816Z,10.44
2022-11-16T03:44:47.642Z,10.45
2022-11-16T03:46:49.028Z,10.46
2022-11-16T03:48:57.029Z,10.47
2022-11-16T03:50:58.449Z,10.45
2022-11-16T03:52:59.780Z,10.42
2022-11-16T03:55:01.227Z,10.42
2022-11-16T03:57:02.581Z,10.42
2022-11-16T03:59:04.487Z,10.43
2022-11-16T04:01:06.071Z,10.41
2022-11-16T04:03:07.613Z,10.38
2022-11-16T04:05:28.508Z,10.34
2022-11-16T04:07:48.324Z,10.34
2022-11-16T04:10:08.180Z,10.33
2022-11-16T04:12:27.860Z,10.30
2022-11-16T04:14:48.215Z,10.29
2022-11-16T04:17:08.063Z,10.30
2022-11-16T04:19:28.405Z,10.29
2022-11-16T04:21:57.335Z,10.29
2022-11-16T04:24:13.572Z,10.27
2022-11-16T04:26:15.284Z,10.28
2022-11-16T04:28:19.243Z,10.25
2022-11-16T04:30:20.783Z,10.22
2022-11-16T04:32:40.732Z,10.22
2022-11-16T04:35:00.457Z,10.29
2022-11-16T04:37:20.141Z,10.32
2022-11-16T04:39:21.895Z,10.31
2022-11-16T04:41:42.078Z,10.30
2022-11-16T04:43:43.448Z,10.28
2022-11-16T04:46:03.200Z,10.30
2022-11-16T04:48:05.024Z,10.31
2022-11-16T04:50:07.021Z,10.27
2022-11-16T04:52:08.859Z,10.26
2022-11-16T04:54:10.227Z,10.27
2022-11-16T04:56:12.415Z,10.25
2022-11-16T04:58:13.818Z,10.26
2022-11-16T05:00:15.829Z,10.26
2022-11-16T05:02:17.431Z,10.26
2022-11-16T05:04:18.796Z,10.28
2022-11-16T05:06:20.172Z,10.32
2022-11-16T05:08:21.523Z,10.31
2022-11-16T05:10:22.936Z,10.32
2022-11-16T05:12:26.270Z,10.32
2022-11-16T05:14:27.626Z,10.33
2022-11-16T05:16:28.953Z,10.36
2022-11-16T05:18:30.500Z,10.34
2022-11-16T05:20:50.557Z,10.35
2022-11-16T05:22:56.560Z,10.33
2022-11-16T05:24:57.998Z,10.31
2022-11-16T05:27:04.696Z,10.29
2022-11-16T05:29:06.055Z,10.30
2022-11-16T05:31:07.399Z,10.32
2022-11-16T05:33:08.728Z,10.34
2022-11-16T05:35:10.106Z,10.35
2022-11-16T05:37:11.861Z,10.34
2022-11-16T05:39:13.278Z,10.31
2022-11-16T05:41:14.694Z,10.29
2022-11-16T05:43:16.084Z,10.25
2022-11-16T05:45:21.023Z,10.27
2022-11-16T05:47:22.673Z,10.25
2022-11-16T05:49:24.393Z,10.22
2022-11-16T05:51:25.827Z,10.27
2022-11-16T05:53:27.200Z,10.27
2022-11-16T05:55:28.584Z,10.21
2022-11-16T05:57:29.941Z,10.22
2022-11-16T05:59:31.370Z,10.20
2022-11-16T06:01:32.758Z,10.26
2022-11-16T06:03:35.528Z,10.26
2022-11-16T06:05:40.488Z,10.26
2022-11-16T06:07:42.245Z,10.22
2022-11-16T06:09:43.735Z,10.23
2022-11-16T06:11:45.098Z,10.25
2022-11-16T06:13:46.468Z,10.27
2022-11-16T06:15:53.168Z,10.26
2022-11-16T06:17:54.540Z,10.26
2022-11-16T06:19:55.880Z,10.25
2022-11-16T06:21:57.232Z,10.21
2022-11-16T06:23:58.598Z,10.21
2022-11-16T06:26:00.361Z,10.22
2022-11-16T06:28:06.648Z,10.23
2022-11-16T06:30:09.400Z,10.21
2022-11-16T06:32:10.752Z,10.19
2022-11-16T06:34:12.102Z,10.16
2022-11-16T06:36:13.498Z,10.15
2022-11-16T06:38:18.595Z,10.15
2022-11-16T06:40:19.935Z,10.15
2022-11-16T06:42:21.354Z,10.15
2022-11-16T06:44:22.759Z,10.14
2022-11-16T06:46:24.649Z,10.09
2022-11-16T06:48:26.600Z,10.03
2022-11-16T06:50:27.951Z,9.99
2022-11-16T06:52:29.384Z,10.01
2022-11-16T06:54:30.748Z,10.02
2022-11-16T06:56:34.624Z,9.98
2022-11-16T06:58:36.330Z,9.94
2022-11-16T07:00:38.074Z,9.97
2022-11-16T07:02:40.107Z,9.94
2022-11-16T07:04:41.756Z,9.93
2022-11-16T07:06:43.093Z,9.92
2022-11-16T07:08:44.504Z,9.97
2022-11-16T07:10:45.851Z,9.98
2022-11-16T07:12:47.200Z,10.01
2022-11-16T07:14:48.641Z,10.05
2022-11-16T07:16:52.685Z,10.04
2022-11-16T07:18:58.975Z,10.09
2022-11-16T07:21:09.165Z,10.13
2022-11-16T07:23:14.217Z,10.16
2022-11-16T07:25:15.859Z,10.21
2022-11-16T07:27:17.235Z,10.22
2022-11-16T07:29:19.350Z,10.23
2022-11-16T07:31:20.735Z,10.20
2022-11-16T07:33:22.175Z,10.31
2022-11-16T07:35:24.910Z,10.43
2022-11-16T07:37:26.410Z,10.53
2022-11-16T07:39:27.813Z,10.37
2022-11-16T07:41:29.173Z,10.36
2022-11-16T07:43:31.974Z,10.23
2022-11-16T07:45:33.848Z,10.03
2022-11-16T07:47:36.768Z,10.03
2022-11-16T07:49:38.217Z,9.98
2022-11-16T07:51:39.616Z,9.97
2022-11-16T07:53:42.159Z,9.99
2022-11-16T07:55:43.492Z,9.96
2022-11-16T07:57:47.948Z,9.94
2022-11-16T07:59:53.395Z,10.00
2022-11-16T08:01:59.099Z,10.03
2022-11-16T08:04:03.547Z,10.01
2022-11-16T08:06:12.295Z,10.00
2022-11-16T08:08:13.696Z,10.03
2022-11-16T08:10:15.338Z,10.02
2022-11-16T08:12:17.386Z,9.91
2022-11-16T08:14:19.159Z,9.83
2022-11-16T08:16:22.267Z,9.77
2022-11-16T08:18:23.607Z,9.72
2022-11-16T08:20:25.072Z,9.71
2022-11-16T08:22:26.459Z,9.67
2022-11-16T08:24:28.075Z,9.65
2022-11-16T08:26:29.539Z,9.64
2022-11-16T08:28:31.781Z,9.64
2022-11-16T08:30:33.392Z,9.71
2022-11-16T08:32:34.801Z,9.73
2022-11-16T08:34:36.158Z,9.79
2022-11-16T08:36:40.264Z,9.86
2022-11-16T08:38:41.649Z,9.87
2022-11-16T08:40:43.004Z,9.93
2022-11-16T08:42:44.426Z,10.00
2022-11-16T08:44:45.806Z,9.99
2022-11-16T08:46:47.239Z,10.08
2022-11-16T08:48:48.699Z,10.31
2022-11-16T08:51:16.061Z,10.21
2022-11-16T08:53:11.470Z,10.16
2022-11-16T08:55:13.869Z,10.25
2022-11-16T08:57:15.225Z,10.37
2022-11-16T08:59:16.681Z,10.38
2022-11-16T09:01:21.557Z,10.46
2022-11-16T09:03:22.996Z,10.49
2022-11-16T09:05:24.411Z,10.50
2022-11-16T09:07:25.817Z,10.48
2022-11-16T09:09:27.155Z,10.54
2022-11-16T09:11:29.087Z,10.60
2022-11-16T09:13:30.435Z,10.48
2022-11-16T09:15:32.004Z,10.53
2022-11-16T09:17:33.421Z,10.53
2022-11-16T09:19:34.765Z,10.55
2022-11-16T09:21:37.517Z,10.46
2022-11-16T09:23:38.941Z,10.50
2022-11-16T09:25:40.267Z,10.52
2022-11-16T09:27:41.793Z,10.57
2022-11-16T09:29:43.201Z,10.58
2022-11-16T09:31:44.615Z,10.64
2022-11-16T09:33:48.662Z,10.64
2022-11-16T09:35:50.010Z,10.63
2022-11-16T09:37:51.349Z,10.63
2022-11-16T09:39:52.756Z,10.53
2022-11-16T09:42:07.219Z,10.42
2022-11-16T09:44:40.850Z,10.42
2022-11-16T09:46:49.572Z,10.50
2022-11-16T09:48:51.834Z,10.59
2022-11-16T09:50:56.815Z,10.65
2022-11-16T09:53:13.353Z,10.76
2022-11-16T09:55:26.291Z,10.75
2022-11-16T09:57:37.090Z,10.69
2022-11-16T09:59:41.799Z,10.72
2022-11-16T10:01:56.735Z,10.86
2022-11-16T10:04:08.932Z,10.95
2022-11-16T10:06:22.009Z,11.09
2022-11-16T10:08:58.726Z,11.15
2022-11-16T10:11:00.100Z,11.19
2022-11-16T10:13:30.450Z,11.05
2022-11-16T10:16:04.097Z,10.90
2022-11-16T10:18:37.471Z,10.89
2022-11-16T10:20:47.944Z,10.80
2022-11-16T10:23:11.529Z,10.88
2022-11-16T10:25:22.889Z,11.06
2022-11-16T10:28:09.249Z,11.18
2022-11-16T10:30:14.740Z,11.21
2022-11-16T10:32:27.964Z,11.29
2022-11-16T10:34:56.520Z,11.46
2022-11-16T10:37:07.673Z,11.56
2022-11-16T10:39:13.940Z,11.49
2022-11-16T10:41:25.898Z,11.81
2022-11-16T10:43:30.585Z,11.82
2022-11-16T10:45:38.584Z,12.15
2022-11-16T10:47:50.722Z,12.12
2022-11-16T10:50:02.237Z,12.04
2022-11-16T10:52:03.755Z,11.96
2022-11-16T10:54:16.105Z,11.93
2022-11-16T10:56:30.113Z,11.82
2022-11-16T10:58:50.552Z,11.91
2022-11-16T11:00:52.072Z,11.72
2022-11-16T11:02:53.513Z,11.74
2022-11-16T11:05:08.095Z,11.82
2022-11-16T11:07:29.267Z,11.78
2022-11-16T11:09:30.683Z,11.82
2022-11-16T11:11:50.443Z,11.73
2022-11-16T11:14:04.812Z,11.89
2022-11-16T11:16:17.687Z,12.00
2022-11-16T11:18:26.180Z,12.07
2022-11-16T11:20:27.571Z,12.00
2022-11-16T11:22:29.060Z,12.07
2022-11-16T11:24:44.260Z,12.06
2022-11-16T11:26:52.990Z,12.08
2022-11-16T11:28:54.842Z,12.16
2022-11-16T11:31:01.502Z,12.14
2022-11-16T11:33:11.229Z,12.14
2022-11-16T11:35:24.632Z,12.16
2022-11-16T11:37:29.436Z,12.23
2022-11-16T11:39:36.445Z,12.29
2022-11-16T11:41:43.704Z,12.38
2022-11-16T11:44:05.152Z,12.36
2022-11-16T11:46:15.299Z,12.41
2022-11-16T11:48:37.801Z,12.31
2022-11-16T11:50:42.047Z,12.21
2022-11-16T11:52:46.400Z,11.94
2022-11-16T11:54:52.580Z,11.80
2022-11-16T11:56:54.390Z,11.83
2022-11-16T11:58:56.498Z,11.96
2022-11-16T12:00:57.836Z,12.09
2022-11-16T12:03:35.605Z,12.12
2022-11-16T12:06:02.104Z,12.06
2022-11-16T12:08:21.626Z,12.11
2022-11-16T12:10:48.892Z,12.28
2022-11-16T12:13:05.453Z,12.14
2022-11-16T12:15:32.174Z,12.34
2022-11-16T12:18:18.374Z,12.59
2022-11-16T12:20:31.835Z,12.63
2022-11-16T12:22:51.503Z,12.56
2022-11-16T12:24:59.934Z,12.70
2022-11-16T12:27:32.132Z,12.97
2022-11-16T12:30:14.056Z,12.82
2022-11-16T12:32:31.936Z,12.81
2022-11-16T12:34:48.367Z,13.03
2022-11-16T12:37:07.731Z,13.19
2022-11-16T12:39:14.862Z,13.20
2022-11-16T12:41:37.401Z,13.12
2022-11-16T12:43:47.457Z,13.50
2022-11-16T12:45:57.893Z,13.71
2022-11-16T12:48:24.199Z,13.76
2022-11-16T12:50:43.898Z,13.74
2022-11-16T12:53:18.063Z,13.68
2022-11-16T12:55:41.451Z,13.57
2022-11-16T12:58:04.665Z,13.60
2022-11-16T13:00:12.491Z,13.45
2022-11-16T13:02:41.021Z,12.96
2022-11-16T13:04:48.161Z,13.02
2022-11-16T13:07:10.922Z,12.76
2022-11-16T13:09:15.480Z,12.67
2022-11-16T13:11:29.696Z,12.66
2022-11-16T13:13:36.686Z,12.64
2022-11-16T13:15:40.871Z,12.89
2022-11-16T13:17:44.339Z,12.89
2022-11-16T13:19:57.616Z,13.11
2022-11-16T13:22:07.463Z,13.41
2022-11-16T13:24:11.773Z,13.56
2022-11-16T13:26:22.553Z,13.46
2022-11-16T13:28:38.403Z,13.53
2022-11-16T13:30:57.487Z,13.35
2022-11-16T13:33:01.856Z,13.39
2022-11-16T13:35:11.628Z,13.05
2022-11-16T13:37:38.013Z,13.18
2022-11-16T13:40:03.340Z,12.77
2022-11-16T13:42:13.107Z,12.72
2022-11-16T13:44:24.528Z,12.59
2022-11-16T13:46:55.921Z,12.44
2022-11-16T13:48:58.106Z,12.24
2022-11-16T13:51:22.845Z,12.10
2022-11-16T13:54:42.657Z,12.08
2022-11-16T13:56:01.775Z,12.02
2022-11-16T13:58:06.190Z,11.88
2022-11-16T14:00:11.292Z,11.72
2022-11-16T14:02:29.465Z,11.61
2022-11-16T14:04:41.908Z,11.68
2022-11-16T14:06:43.212Z,11.63
2022-11-16T14:08:45.312Z,11.69
2022-11-16T14:10:49.999Z,11.66
2022-11-16T14:12:54.005Z,11.66
2022-11-16T14:15:21.964Z,11.67
2022-11-16T14:17:55.062Z,11.69
2022-11-16T14:19:56.896Z,11.68
2022-11-16T14:22:12.455Z,11.71
2022-11-16T14:24:40.901Z,11.80
2022-11-16T14:27:16.881Z,11.80
2022-11-16T14:29:31.871Z,11.80
2022-11-16T14:31:56.686Z,11.83
2022-11-16T14:34:00.416Z,11.95
2022-11-16T14:36:04.418Z,12.04
2022-11-16T14:38:17.757Z,12.24
2022-11-16T14:40:20.021Z,12.23
2022-11-16T14:42:48.394Z,12.27
2022-11-16T14:45:11.749Z,12.52
2022-11-16T14:47:25.292Z,12.89
2022-11-16T14:49:28.622Z,12.64
2022-11-16T14:51:35.350Z,12.47
2022-11-16T14:53:41.599Z,12.34
2022-11-16T14:55:45.819Z,12.27
2022-11-16T14:57:47.695Z,12.13
2022-11-16T15:00:06.001Z,12.01
2022-11-16T15:02:18.920Z,11.78
2022-11-16T15:04:22.056Z,11.66
2022-11-16T15:06:25.887Z,11.58
2022-11-16T15:08:42.827Z,11.56
2022-11-16T15:10:51.075Z,11.42
2022-11-16T15:12:55.753Z,11.16
2022-11-16T15:15:01.104Z,11.21
2022-11-16T15:17:02.926Z,11.20
2022-11-16T15:19:12.478Z,11.12
2022-11-16T15:21:24.064Z,11.09
2022-11-16T15:23:30.403Z,11.03
2022-11-16T15:25:35.945Z,10.97
2022-11-16T15:27:40.593Z,10.85
2022-11-16T15:29:42.049Z,10.88
2022-11-16T15:31:45.195Z,10.83
2022-11-16T15:33:46.736Z,10.82
2022-11-16T15:35:48.303Z,10.81
2022-11-16T15:38:16.619Z,10.75
2022-11-16T15:40:18.012Z,10.64
2022-11-16T15:42:20.920Z,10.62
2022-11-16T15:44:23.573Z,10.65
2022-11-16T15:46:31.230Z,10.59
2022-11-16T15:48:34.004Z,10.56
2022-11-16T15:50:35.866Z,10.51
2022-11-16T15:52:45.455Z,10.50
2022-11-16T15:55:03.865Z,10.47
2022-11-16T15:57:09.728Z,10.48
2022-11-16T15:59:27.580Z,10.47
2022-11-16T16:01:30.349Z,10.36
2022-11-16T16:03:35.219Z,10.20
2022-11-16T16:05:40.954Z,10.12
2022-11-16T16:07:43.868Z,10.02
2022-11-16T16:09:45.319Z,9.98
2022-11-16T16:11:46.956Z,9.93
2022-11-16T16:14:10.697Z,9.96
2022-11-16T16:16:12.174Z,9.93
2022-11-16T16:18:39.385Z,9.94
2022-11-16T16:20:48.716Z,10.00
2022-11-16T16:22:51.482Z,10.00
2022-11-16T16:24:53.575Z,9.97
2022-11-16T16:26:55.050Z,10.04
2022-11-16T16:28:56.783Z,10.05
2022-11-16T16:30:58.147Z,10.06
2022-11-16T16:32:59.744Z,10.06
2022-11-16T16:35:03.056Z,10.06
2022-11-16T16:37:04.416Z,10.00
2022-11-16T16:39:05.772Z,9.96
2022-11-16T16:41:07.638Z,9.93
2022-11-16T16:43:09.025Z,9.91
2022-11-16T16:45:35.102Z,9.87
2022-11-16T16:47:36.471Z,9.87
2022-11-16T16:49:38.120Z,9.87
2022-11-16T16:51:39.494Z,9.86
2022-11-16T16:53:40.822Z,9.87
2022-11-16T16:55:43.132Z,9.89
2022-11-16T16:57:44.497Z,9.86
2022-11-16T16:59:48.056Z,9.93
2022-11-16T17:01:50.588Z,9.92
2022-11-16T17:03:51.948Z,9.96
2022-11-16T17:05:59.595Z,9.95
2022-11-16T17:08:01.089Z,10.00
2022-11-16T17:10:02.468Z,9.99
2022-11-16T17:12:04.288Z,10.01
2022-11-16T17:14:05.830Z,10.01
2022-11-16T17:16:07.534Z,10.04
2022-11-16T17:18:09.231Z,10.04
2022-11-16T17:20:11.501Z,10.00
2022-11-16T17:22:13.979Z,9.97
2022-11-16T17:24:15.371Z,9.91
2022-11-16T17:26:17.259Z,9.87
2022-11-16T17:28:18.710Z,9.86
2022-11-16T17:30:20.212Z,9.87
2022-11-16T17:32:21.585Z,9.89
2022-11-16T17:34:23.035Z,9.88
2022-11-16T17:36:24.383Z,9.92
2022-11-16T17:38:25.881Z,9.93
2022-11-16T17:40:27.335Z,9.93
2022-11-16T17:42:28.710Z,9.87
2022-11-16T17:44:30.381Z,9.82
2022-11-16T17:46:31.823Z,9.71
2022-11-16T17:48:33.979Z,9.62
2022-11-16T17:50:35.360Z,9.51
2022-11-16T17:52:36.743Z,9.42
2022-11-16T17:54:38.135Z,9.38
2022-11-16T17:56:39.533Z,9.50
2022-11-16T17:58:41.465Z,9.52
2022-11-16T18:00:42.852Z,9.53
2022-11-16T18:02:44.263Z,9.46
2022-11-16T18:04:50.709Z,9.35
2022-11-16T18:06:52.500Z,9.21
2022-11-16T18:08:54.143Z,9.15
2022-11-16T18:10:55.573Z,9.09
2022-11-16T18:12:57.062Z,9.06
2022-11-16T18:15:26.518Z,9.09
2022-11-16T18:17:20.036Z,9.02
2022-11-16T18:19:23.376Z,8.93
2022-11-16T18:21:25.530Z,8.86
2022-11-16T18:23:30.077Z,8.78
2022-11-16T18:25:34.572Z,8.78
2022-11-16T18:27:38.500Z,8.72
2022-11-16T18:29:40.145Z,8.69
2022-11-16T18:31:42.159Z,8.64
2022-11-16T18:33:44.331Z,8.53
2022-11-16T18:35:45.812Z,8.51
2022-11-16T18:37:47.153Z,8.44
2022-11-16T18:39:48.599Z,8.43
2022-11-16T18:41:55.015Z,8.39
2022-11-16T18:43:59.006Z,8.34
2022-11-16T18:46:00.655Z,8.33
2022-11-16T18:48:01.983Z,8.27
2022-11-16T18:50:06.002Z,8.26
2022-11-16T18:52:07.400Z,8.21
2022-11-16T18:54:09.785Z,8.17
2022-11-16T18:56:11.858Z,8.13
2022-11-16T18:58:43.486Z,8.14
2022-11-16T19:00:34.657Z,8.09
2022-11-16T19:02:36.058Z,8.05
2022-11-16T19:04:39.936Z,8.00
2022-11-16T19:06:41.325Z,8.02
2022-11-16T19:08:43.578Z,7.98
2022-11-16T19:10:45.028Z,7.90
2022-11-16T19:12:46.410Z,7.89
2022-11-16T19:14:47.812Z,7.87
2022-11-16T19:16:55.638Z,7.83
2022-11-16T19:18:58.488Z,7.83
2022-11-16T19:21:11.070Z,7.75
2022-11-16T19:23:12.540Z,7.73
2022-11-16T19:25:13.969Z,7.70
2022-11-16T19:27:16.618Z,7.68
2022-11-16T19:29:18.008Z,7.62
2022-11-16T19:31:20.690Z,7.62
2022-11-16T19:33:22.121Z,7.62
2022-11-16T19:35:23.822Z,7.63
2022-11-16T19:37:25.755Z,7.61
2022-11-16T19:39:27.188Z,7.56
2022-11-16T19:41:28.597Z,7.58
2022-11-16T19:43:30.041Z,7.62
2022-11-16T19:45:31.764Z,7.59
2022-11-16T19:47:33.124Z,7.62
2022-11-16T19:49:34.549Z,7.56
2022-11-16T19:51:36.073Z,7.59
2022-11-16T19:53:38.322Z,7.54
2022-11-16T19:55:39.853Z,7.53
2022-11-16T19:57:41.455Z,7.48
2022-11-16T19:59:42.861Z,7.47
2022-11-16T20:01:44.252Z,7.54
2022-11-16T20:03:47.288Z,7.51
2022-11-16T20:05:48.638Z,7.53
2022-11-16T20:07:50.299Z,7.46
2022-11-16T20:09:53.545Z,7.47
2022-11-16T20:11:56.357Z,7.49
2022-11-16T20:13:58.402Z,7.46
2022-11-16T20:16:01.992Z,7.50
2022-11-16T20:18:03.480Z,7.47
2022-11-16T20:20:05.277Z,7.55
2022-11-16T20:22:06.764Z,7.54
2022-11-16T20:24:12.040Z,7.57
2022-11-16T20:26:14.362Z,7.54
2022-11-16T20:28:15.760Z,7.52
2022-11-16T20:30:17.395Z,7.48
2022-11-16T20:32:18.891Z,7.41
2022-11-16T20:34:22.058Z,7.38
2022-11-16T20:36:25.250Z,7.35
2022-11-16T20:38:26.613Z,7.35
2022-11-16T20:40:28.048Z,7.37
2022-11-16T20:42:29.416Z,7.35
2022-11-16T20:44:36.456Z,7.33
2022-11-16T20:46:38.434Z,7.29
2022-11-16T20:48:41.127Z,7.31
2022-11-16T20:50:42.576Z,7.32
2022-11-16T20:52:47.245Z,7.39
2022-11-16T20:54:52.853Z,7.40
2022-11-16T20:56:54.236Z,7.37
2022-11-16T20:58:57.874Z,7.40
2022-11-16T21:01:01.177Z,7.39
2022-11-16T21:03:08.517Z,7.42
2022-11-16T21:05:09.918Z,7.43
2022-11-16T21:07:11.360Z,7.43
2022-11-16T21:09:15.519Z,7.40
2022-11-16T21:11:19.719Z,7.46
2022-11-16T21:13:40.365Z,7.54
2022-11-16T21:15:41.739Z,7.58
2022-11-16T21:17:43.209Z,7.60
2022-11-16T21:20:05.399Z,7.66
2022-11-16T21:22:05.947Z,7.71
2022-11-16T21:24:11.282Z,7.79
2022-11-16T21:26:14.986Z,7.91
2022-11-16T21:28:20.109Z,8.04
2022-11-16T21:30:27.199Z,8.23
2022-11-16T21:32:28.589Z,8.26
2022-11-16T21:34:34.620Z,8.38
2022-11-16T21:36:39.336Z,8.42
2022-11-16T21:38:41.380Z,8.51
2022-11-16T21:43:09.078Z,8.67
2022-11-16T21:45:11.565Z,8.67
2022-11-16T21:47:13.265Z,8.76
2022-11-16T21:49:14.602Z,8.79
2022-11-16T21:51:18.220Z,8.77
2022-11-16T21:53:19.607Z,8.76
2022-11-16T21:55:20.998Z,8.82
2022-11-16T21:57:22.869Z,8.84
2022-11-16T21:59:24.311Z,8.83
2022-11-16T22:01:45.695Z,8.97
2022-11-16T22:03:48.391Z,9.00
2022-11-16T22:06:12.709Z,9.03
2022-11-16T22:08:17.708Z,9.04
2022-11-16T22:10:19.224Z,9.11
2022-11-16T22:12:20.838Z,9.07
2022-11-16T22:14:22.229Z,9.02
2022-11-16T22:16:23.829Z,8.97
2022-11-16T22:18:25.233Z,8.99
2022-11-16T22:20:26.612Z,8.94
2022-11-16T22:22:28.394Z,8.91
2022-11-16T22:24:30.608Z,8.92
2022-11-16T22:26:32.079Z,8.94
2022-11-16T22:28:34.219Z,8.94
2022-11-16T22:30:36.126Z,8.93
2022-11-16T22:32:37.601Z,8.94
2022-11-16T22:34:39.128Z,8.97
2022-11-16T22:36:40.500Z,9.05
2022-11-16T22:38:41.895Z,9.11
2022-11-16T22:40:52.258Z,9.14
2022-11-16T22:42:56.967Z,9.18
2022-11-16T22:44:58.373Z,9.23
2022-11-16T22:46:59.799Z,9.36
2022-11-16T22:49:01.164Z,9.33
2022-11-16T22:51:12.063Z,9.39
2022-11-16T22:53:14.647Z,9.36
2022-11-16T22:55:16.062Z,9.42
2022-11-16T22:57:17.417Z,9.47
2022-11-16T22:59:18.792Z,9.53
2022-11-16T23:01:20.882Z,9.49
2022-11-16T23:03:22.285Z,9.49
2022-11-16T23:05:23.737Z,9.46
2022-11-16T23:07:25.137Z,9.49
2022-11-16T23:09:26.616Z,9.50
2022-11-16T23:11:47.068Z,9.50
2022-11-16T23:14:07.948Z,9.53
2022-11-16T23:16:09.328Z,9.55
2022-11-16T23:18:10.785Z,9.56
2022-11-16T23:20:30.865Z,9.55
2022-11-16T23:22:50.683Z,9.55
2022-11-16T23:25:10.545Z,9.60
2022-11-16T23:27:29.891Z,9.63
2022-11-16T23:29:31.285Z,9.62
2022-11-16T23:31:32.620Z,9.64
2022-11-16T23:33:46.087Z,9.67
2022-11-16T23:35:47.478Z,9.68
2022-11-16T23:38:08.047Z,9.65
2022-11-16T23:40:10.008Z,9.65
2022-11-16T23:42:30.700Z,9.64
2022-11-16T23:44:32.043Z,9.68
2022-11-16T23:46:33.816Z,9.65
2022-11-16T23:48:35.209Z,9.64
2022-11-16T23:50:37.118Z,9.61
2022-11-16T23:52:38.481Z,9.64
2022-11-16T23:54:39.887Z,9.68
2022-11-16T23:56:41.272Z,9.73
2022-11-16T23:58:42.616Z,9.72
